Time;durP1;ratioP1;P1;durP2;ratioP2;P2;SDS_P1;SDS_P2;PMS_P1;PMS_P2;Temp;Humidity;BMP_temperature;BMP_pressure;BME280_temperature;BME280_humidity;BME280_pressure;Samples;Min_cycle;Max_cycle;Signal;HPM_P1;HPM_P2
2023/09/11 00:02:09;;;;;;;2.73;1.23;;;23.00;43.50;;;;;;4955378;28;20169;-50
2023/09/11 00:04:34;;;;;;;3.30;1.17;;;23.00;43.40;;;;;;4955503;28;20184;-52
2023/09/11 00:07:01;;;;;;;2.03;1.77;;;22.90;43.80;;;;;;4955431;29;20673;-52
2023/09/11 00:09:27;;;;;;;1.60;0.93;;;22.90;44.00;;;;;;4955675;28;20188;-51
2023/09/11 00:11:53;;;;;;;2.07;0.90;;;22.90;43.80;;;;;;4955236;28;20456;-51
2023/09/11 00:14:19;;;;;;;1.20;0.93;;;22.80;43.80;;;;;;4955482;28;20413;-51
2023/09/11 00:16:44;;;;;;;2.03;1.20;;;22.80;44.30;;;;;;4955296;28;20201;-51
2023/09/11 00:19:12;;;;;;;1.53;1.13;;;22.80;43.70;;;;;;4955236;29;20192;-50
2023/09/11 00:21:38;;;;;;;1.77;1.67;;;22.70;44.00;;;;;;4955152;28;20180;-51
2023/09/11 00:24:04;;;;;;;1.70;0.77;;;22.70;43.90;;;;;;4955195;28;20475;-52
2023/09/11 00:26:30;;;;;;;1.40;0.80;;;22.70;44.10;;;;;;4954951;28;20459;-51
2023/09/11 00:28:55;;;;;;;1.10;0.60;;;22.70;43.90;;;;;;4955127;28;20956;-52
2023/09/11 00:31:21;;;;;;;3.10;1.00;;;22.60;43.70;;;;;;4954817;29;20440;-51
2023/09/11 00:33:47;;;;;;;1.27;0.70;;;22.60;43.80;;;;;;4954989;28;20219;-50
2023/09/11 00:36:13;;;;;;;1.50;1.20;;;22.60;44.10;;;;;;4955015;28;20232;-52
2023/09/11 00:38:39;;;;;;;1.87;0.97;;;22.60;44.10;;;;;;4954930;29;20534;-50
2023/09/11 00:41:04;;;;;;;2.37;0.70;;;22.50;43.80;;;;;;4954777;28;20176;-50
2023/09/11 00:43:30;;;;;;;1.80;1.33;;;22.50;44.30;;;;;;4954894;28;20165;-52
2023/09/11 00:45:57;;;;;;;1.57;1.00;;;22.50;44.50;;;;;;4954766;28;20188;-52
2023/09/11 00:48:23;;;;;;;1.60;0.73;;;22.40;44.40;;;;;;4954677;28;20180;-49
2023/09/11 00:50:50;;;;;;;1.50;1.27;;;22.40;44.10;;;;;;4954426;28;20415;-50
2023/09/11 00:53:18;;;;;;;1.30;1.13;;;22.50;44.10;;;;;;4953483;29;20412;-52
2023/09/11 00:55:45;;;;;;;1.20;0.70;;;22.50;44.30;;;;;;4954594;28;20433;-49
2023/09/11 00:58:12;;;;;;;1.60;0.70;;;22.40;44.30;;;;;;4954544;28;20981;-50
2023/09/11 01:00:38;;;;;;;1.63;0.80;;;22.30;44.40;;;;;;4954388;28;20436;-52
2023/09/11 01:03:04;;;;;;;1.57;0.97;;;22.30;44.40;;;;;;4954428;28;20770;-52
2023/09/11 01:05:32;;;;;;;1.73;0.90;;;22.30;44.70;;;;;;4954363;28;20961;-50
2023/09/11 01:07:57;;;;;;;1.57;0.53;;;22.30;44.60;;;;;;4954485;28;20501;-51
2023/09/11 01:10:23;;;;;;;2.30;1.03;;;22.20;45.00;;;;;;4954236;29;20503;-50
2023/09/11 01:12:49;;;;;;;1.30;1.10;;;22.10;45.20;;;;;;4954372;28;20698;-50
2023/09/11 01:15:15;;;;;;;1.40;1.20;;;22.00;45.10;;;;;;4954204;28;20486;-52
2023/09/11 01:17:46;;;;;;;1.20;0.70;;;22.00;45.30;;;;;;4954194;28;20456;-50
2023/09/11 01:20:34;;;;;;;1.20;0.70;;;22.00;45.40;;;;;;4954181;28;20416;-50
2023/09/11 01:23:27;;;;;;;1.60;1.33;;;22.00;45.10;;;;;;4954245;29;20408;-52
2023/09/11 01:26:02;;;;;;;1.20;0.57;;;22.00;44.90;;;;;;4953982;29;20451;-53
2023/09/11 01:29:07;;;;;;;1.57;1.20;;;22.00;45.00;;;;;;4954150;29;20410;-49
2023/09/11 01:31:35;;;;;;;2.90;1.57;;;21.90;45.00;;;;;;4953887;28;21095;-51
2023/09/11 01:34:02;;;;;;;3.70;1.43;;;21.80;46.10;;;;;;4953988;28;20404;-52
2023/09/11 01:36:28;;;;;;;1.20;0.77;;;21.80;45.50;;;;;;4953832;28;20467;-50
2023/09/11 01:38:55;;;;;;;1.40;0.90;;;21.70;46.70;;;;;;4954041;28;20766;-52
2023/09/11 01:41:33;;;;;;;3.00;1.87;;;21.70;46.00;;;;;;4953791;28;20173;-51
2023/09/11 01:44:04;;;;;;;1.80;1.40;;;21.80;45.30;;;;;;4954053;28;20463;-50
2023/09/11 01:46:31;;;;;;;1.20;0.67;;;21.80;45.80;;;;;;4953857;28;20512;-51
2023/09/11 01:48:59;;;;;;;1.20;1.03;;;21.70;45.80;;;;;;4954107;28;20412;-52
2023/09/11 01:51:26;;;;;;;1.27;0.70;;;21.70;45.70;;;;;;4953689;28;20427;-48
2023/09/11 01:53:52;;;;;;;1.10;0.60;;;21.70;45.60;;;;;;4953877;28;20444;-51
2023/09/11 01:56:18;;;;;;;3.33;1.20;;;21.70;45.60;;;;;;4953729;28;20514;-52
2023/09/11 01:58:44;;;;;;;1.57;1.23;;;21.60;45.60;;;;;;4953947;28;20455;-49
2023/09/11 02:01:10;;;;;;;1.43;1.27;;;21.60;45.60;;;;;;4953523;28;20767;-51
2023/09/11 02:03:36;;;;;;;1.87;0.70;;;21.60;45.40;;;;;;4956847;29;20631;-52
2023/09/11 02:06:01;;;;;;;1.20;0.87;;;21.60;45.10;;;;;;4957640;28;20749;-52
2023/09/11 02:08:27;;;;;;;1.10;0.50;;;21.70;45.20;;;;;;4957674;28;20169;-52
2023/09/11 02:10:53;;;;;;;2.13;1.93;;;21.70;45.20;;;;;;4957497;28;20276;-51
2023/09/11 02:13:20;;;;;;;4.23;1.83;;;21.70;45.30;;;;;;4957481;28;20176;-51
2023/09/11 02:15:45;;;;;;;2.80;1.43;;;21.70;45.30;;;;;;4957422;29;21026;-51
2023/09/11 02:18:11;;;;;;;2.97;1.10;;;21.60;45.20;;;;;;4957358;29;20599;-50
2023/09/11 02:20:37;;;;;;;1.50;0.80;;;21.50;46.10;;;;;;4957260;29;20202;-49
2023/09/11 02:23:02;;;;;;;1.10;0.60;;;21.50;45.20;;;;;;4957396;29;20255;-52
2023/09/11 02:25:28;;;;;;;1.80;1.00;;;21.50;45.20;;;;;;4957230;28;20547;-52
2023/09/11 02:27:54;;;;;;;2.10;1.90;;;21.50;45.50;;;;;;4957429;28;20236;-49
2023/09/11 02:30:19;;;;;;;1.10;0.73;;;21.50;45.20;;;;;;4957154;28;20176;-51
2023/09/11 02:32:45;;;;;;;1.50;0.90;;;21.50;45.40;;;;;;4957461;28;20191;-52
2023/09/11 02:35:11;;;;;;;2.50;1.27;;;21.50;45.30;;;;;;4957272;28;20201;-51
2023/09/11 02:37:37;;;;;;;3.33;0.97;;;21.40;45.60;;;;;;4957056;29;20705;-50
2023/09/11 02:40:03;;;;;;;1.37;1.10;;;21.40;45.50;;;;;;4957147;29;20228;-52
2023/09/11 02:42:28;;;;;;;1.20;0.57;;;21.40;45.50;;;;;;4956998;28;20176;-52
2023/09/11 02:44:54;;;;;;;1.60;1.30;;;21.30;45.60;;;;;;4956827;29;20462;-51
2023/09/11 02:47:20;;;;;;;3.20;2.80;;;21.30;45.70;;;;;;4957023;28;20173;-52
2023/09/11 02:49:45;;;;;;;1.47;0.90;;;21.30;45.60;;;;;;4956969;29;20176;-50
2023/09/11 02:52:11;;;;;;;2.03;1.20;;;21.30;45.60;;;;;;4956834;29;20188;-52
2023/09/11 02:54:37;;;;;;;1.20;0.63;;;21.20;45.60;;;;;;4957026;28;20196;-48
2023/09/11 02:57:03;;;;;;;1.70;1.20;;;21.20;45.60;;;;;;4956703;29;20291;-51
2023/09/11 02:59:28;;;;;;;2.20;1.27;;;21.20;45.70;;;;;;4956697;29;20235;-52
2023/09/11 03:01:54;;;;;;;1.40;0.90;;;21.10;45.60;;;;;;4956756;28;20416;-52
2023/09/11 03:04:20;;;;;;;1.10;0.77;;;21.20;45.70;;;;;;4956804;29;20313;-51
2023/09/11 03:06:46;;;;;;;1.40;0.90;;;21.20;45.40;;;;;;4956667;28;20703;-51
2023/09/11 03:09:11;;;;;;;1.40;0.83;;;21.10;45.80;;;;;;4956723;28;20188;-50
2023/09/11 03:11:37;;;;;;;1.37;0.90;;;21.10;45.60;;;;;;4956445;28;20169;-52
2023/09/11 03:14:03;;;;;;;2.20;1.13;;;21.10;45.70;;;;;;4956197;28;20224;-49
2023/09/11 03:16:29;;;;;;;1.10;0.70;;;21.10;45.50;;;;;;4956354;28;20204;-51
2023/09/11 03:18:55;;;;;;;1.47;0.90;;;21.10;45.50;;;;;;4956595;28;20173;-49
2023/09/11 03:21:21;;;;;;;1.17;0.57;;;21.00;45.60;;;;;;4956180;28;20655;-51
2023/09/11 03:23:46;;;;;;;1.50;0.80;;;21.00;45.80;;;;;;4956233;28;20471;-50
2023/09/11 03:26:13;;;;;;;1.40;0.90;;;21.00;45.70;;;;;;4956148;28;20295;-52
2023/09/11 03:28:39;;;;;;;1.20;0.70;;;21.00;45.60;;;;;;4956199;28;20160;-51
2023/09/11 03:31:05;;;;;;;1.53;1.33;;;21.00;45.70;;;;;;4956001;28;20412;-51
2023/09/11 03:33:31;;;;;;;1.57;0.93;;;21.00;45.40;;;;;;4956282;29;20177;-51
2023/09/11 03:35:58;;;;;;;1.20;0.80;;;21.00;45.60;;;;;;4955966;28;20197;-51
2023/09/11 03:38:24;;;;;;;1.73;1.23;;;21.00;45.40;;;;;;4956110;28;20164;-51
2023/09/11 03:40:50;;;;;;;1.50;0.80;;;21.00;45.30;;;;;;4955789;29;20419;-51
2023/09/11 03:43:15;;;;;;;1.57;1.00;;;21.00;45.30;;;;;;4955834;28;20586;-51
2023/09/11 03:45:41;;;;;;;1.40;0.93;;;21.00;45.80;;;;;;4956103;29;20436;-51
2023/09/11 03:48:07;;;;;;;1.80;1.00;;;21.00;45.10;;;;;;4956002;28;20600;-51
2023/09/11 03:50:32;;;;;;;1.47;1.03;;;20.90;45.00;;;;;;4955607;29;20715;-50
2023/09/11 03:52:58;;;;;;;2.53;1.00;;;20.90;45.20;;;;;;4955888;28;20187;-51
2023/09/11 03:55:24;;;;;;;1.10;0.47;;;20.90;45.20;;;;;;4955668;28;20200;-51
2023/09/11 03:57:50;;;;;;;2.57;1.20;;;20.80;45.40;;;;;;4955532;28;20211;-51
2023/09/11 04:00:16;;;;;;;2.30;0.90;;;20.70;45.50;;;;;;4955845;28;20189;-51
2023/09/11 04:02:41;;;;;;;1.50;1.00;;;20.70;45.40;;;;;;4955460;29;20165;-51
2023/09/11 04:05:07;;;;;;;1.87;0.83;;;20.70;45.50;;;;;;4955553;29;20417;-53
2023/09/11 04:07:33;;;;;;;1.40;0.80;;;20.70;45.50;;;;;;4955562;28;20177;-52
2023/09/11 04:09:59;;;;;;;1.07;0.47;;;20.70;45.50;;;;;;4955643;29;20180;-49
2023/09/11 04:12:24;;;;;;;1.87;1.27;;;20.70;45.40;;;;;;4955107;28;20227;-52
2023/09/11 04:14:50;;;;;;;3.30;0.70;;;20.70;45.60;;;;;;4955382;28;20409;-50
2023/09/11 04:17:16;;;;;;;1.20;0.67;;;20.70;45.90;;;;;;4955233;29;20484;-52
2023/09/11 04:19:43;;;;;;;1.93;0.83;;;20.60;45.80;;;;;;4955378;29;20419;-50
2023/09/11 04:22:09;;;;;;;3.77;2.23;;;20.60;45.50;;;;;;4955221;28;20176;-50
2023/09/11 04:24:35;;;;;;;1.93;1.57;;;20.60;45.60;;;;;;4954826;28;20413;-52
2023/09/11 04:27:01;;;;;;;1.20;0.60;;;20.60;45.50;;;;;;4954789;29;20463;-49
2023/09/11 04:29:28;;;;;;;1.37;0.90;;;20.60;45.50;;;;;;4955076;28;20579;-52
2023/09/11 04:31:54;;;;;;;2.10;1.80;;;20.60;45.30;;;;;;4955070;28;20429;-52
2023/09/11 04:34:20;;;;;;;1.17;0.53;;;20.60;45.50;;;;;;4955003;29;20416;-51
2023/09/11 04:36:45;;;;;;;1.47;1.00;;;20.60;45.40;;;;;;4954947;28;20208;-51
2023/09/11 04:39:14;;;;;;;1.17;0.87;;;20.70;45.50;;;;;;4954986;28;20249;-51
2023/09/11 04:41:39;;;;;;;4.10;1.40;;;20.60;45.30;;;;;;4954647;28;20305;-50
2023/09/11 04:44:05;;;;;;;2.30;0.80;;;20.60;45.50;;;;;;4954848;28;21169;-52
2023/09/11 04:46:31;;;;;;;2.30;0.67;;;20.60;45.50;;;;;;4954716;29;20203;-50
2023/09/11 04:48:57;;;;;;;1.30;1.10;;;20.60;45.50;;;;;;4954914;28;20619;-53
2023/09/11 04:51:24;;;;;;;1.60;0.87;;;20.60;45.40;;;;;;4954542;28;20412;-51
2023/09/11 04:53:49;;;;;;;1.40;1.00;;;20.60;45.60;;;;;;4954713;28;20643;-50
2023/09/11 04:56:15;;;;;;;1.77;1.33;;;20.60;45.70;;;;;;4954450;28;20216;-52
2023/09/11 04:58:41;;;;;;;1.33;0.90;;;20.60;45.80;;;;;;4954837;28;20172;-50
2023/09/11 05:01:08;;;;;;;1.20;0.97;;;20.50;45.90;;;;;;4954283;28;20677;-51
2023/09/11 05:03:34;;;;;;;1.27;0.75;;;20.50;45.80;;;;;;4954510;28;20670;-52
2023/09/11 05:06:00;;;;;;;1.75;1.30;;;20.60;45.70;;;;;;4954560;28;20197;-52
2023/09/11 05:08:26;;;;;;;1.50;0.73;;;20.60;45.90;;;;;;4954589;29;20173;-52
2023/09/11 05:10:51;;;;;;;1.47;0.77;;;20.70;45.80;;;;;;4954160;28;20475;-50
2023/09/11 05:13:18;;;;;;;2.33;1.10;;;20.70;45.80;;;;;;4954330;29;20227;-49
2023/09/11 05:15:44;;;;;;;1.83;0.95;;;20.70;45.60;;;;;;4954255;28;20200;-51
2023/09/11 05:18:12;;;;;;;2.47;0.80;;;20.80;45.80;;;;;;4954254;28;20242;-51
2023/09/11 05:20:38;;;;;;;3.73;1.40;;;20.80;45.80;;;;;;4954077;28;20548;-49
2023/09/11 05:23:05;;;;;;;1.50;0.50;;;20.80;46.10;;;;;;4954328;28;20415;-49
2023/09/11 05:25:31;;;;;;;1.10;0.63;;;20.90;45.90;;;;;;4953834;28;20220;-52
2023/09/11 05:27:57;;;;;;;1.33;0.97;;;21.00;46.20;;;;;;4954215;28;20416;-52
2023/09/11 05:30:22;;;;;;;1.37;0.70;;;21.00;46.50;;;;;;4953969;28;20418;-51
2023/09/11 05:32:51;;;;;;;1.10;0.73;;;21.10;46.50;;;;;;4954275;28;20184;-50
2023/09/11 05:35:18;;;;;;;1.30;0.85;;;21.20;46.10;;;;;;4954170;28;20228;-50
2023/09/11 05:37:44;;;;;;;2.65;1.88;;;21.30;46.00;;;;;;4953070;28;20208;-50
2023/09/11 05:40:10;;;;;;;5.53;1.70;;;21.40;45.90;;;;;;4953962;28;20650;-51
2023/09/11 05:42:36;;;;;;;1.73;1.20;;;21.50;46.40;;;;;;4953864;28;20249;-50
2023/09/11 05:45:02;;;;;;;1.50;1.20;;;21.50;46.40;;;;;;4953828;28;20998;-52
2023/09/11 05:47:28;;;;;;;1.70;1.30;;;21.60;46.00;;;;;;4953924;28;20252;-50
2023/09/11 05:49:59;;;;;;;2.27;1.67;;;21.70;46.10;;;;;;4953958;28;20255;-52
2023/09/11 05:52:24;;;;;;;7.43;1.37;;;21.70;46.50;;;;;;4953596;28;20181;-51
2023/09/11 05:54:50;;;;;;;3.60;1.93;;;21.90;46.10;;;;;;4954048;28;20420;-50
2023/09/11 05:57:16;;;;;;;2.80;2.10;;;21.90;46.10;;;;;;4953711;28;20211;-50
2023/09/11 05:59:42;;;;;;;1.73;0.60;;;22.00;45.90;;;;;;4953751;29;20247;-50
2023/09/11 06:02:08;;;;;;;1.30;0.83;;;22.10;46.00;;;;;;4953567;28;20184;-50
2023/09/11 06:04:33;;;;;;;1.30;1.00;;;22.20;45.90;;;;;;4953807;28;20401;-52
2023/09/11 06:06:59;;;;;;;1.30;0.83;;;22.20;46.10;;;;;;4953707;29;20196;-52
2023/09/11 06:09:25;;;;;;;3.00;1.70;;;22.30;45.80;;;;;;4953788;28;20173;-49
2023/09/11 06:11:52;;;;;;;3.10;2.20;;;22.40;45.80;;;;;;4953548;29;20173;-50
2023/09/11 06:14:18;;;;;;;2.13;1.30;;;22.50;45.80;;;;;;4953681;28;20168;-52
2023/09/11 06:16:43;;;;;;;2.23;1.27;;;22.50;45.80;;;;;;4953583;28;20448;-50
2023/09/11 06:19:09;;;;;;;2.33;1.07;;;22.60;45.80;;;;;;4953554;29;20408;-50
2023/09/11 06:21:35;;;;;;;1.30;0.90;;;22.70;45.70;;;;;;4953357;28;20205;-52
2023/09/11 06:24:01;;;;;;;1.20;0.73;;;22.80;45.90;;;;;;4953643;28;20177;-49
2023/09/11 06:26:27;;;;;;;3.80;1.53;;;22.90;46.00;;;;;;4953403;28;20458;-49
2023/09/11 06:28:53;;;;;;;1.87;1.20;;;22.90;45.80;;;;;;4953596;29;20416;-51
2023/09/11 06:31:20;;;;;;;1.53;0.60;;;22.90;45.70;;;;;;4953331;28;20256;-50
2023/09/11 06:33:45;;;;;;;1.47;1.00;;;23.00;45.80;;;;;;4953529;28;20184;-50
2023/09/11 06:36:11;;;;;;;1.23;0.80;;;23.10;45.70;;;;;;4953363;28;20435;-51
2023/09/11 06:38:37;;;;;;;1.43;1.07;;;23.20;45.70;;;;;;4953527;29;20200;-49
2023/09/11 06:41:03;;;;;;;1.00;0.40;;;23.20;46.00;;;;;;4953254;29;20663;-50
2023/09/11 06:43:29;;;;;;;1.97;1.63;;;23.30;45.90;;;;;;4953593;28;20543;-53
2023/09/11 06:45:54;;;;;;;3.00;1.77;;;23.40;45.40;;;;;;4953478;28;20474;-50
2023/09/11 06:48:22;;;;;;;1.30;0.97;;;23.50;45.40;;;;;;4954482;28;20651;-50
2023/09/11 06:50:47;;;;;;;2.63;1.27;;;23.50;45.20;;;;;;4956628;28;20169;-52
2023/09/11 06:53:13;;;;;;;2.67;1.13;;;23.60;45.70;;;;;;4957114;28;20415;-52
2023/09/11 06:55:48;;;;;;;2.43;1.70;;;23.70;45.20;;;;;;4956809;28;20671;-51
2023/09/11 06:58:14;;;;;;;1.63;1.43;;;23.80;45.20;;;;;;4955380;28;20541;-52
2023/09/11 07:00:40;;;;;;;1.90;1.53;;;23.80;45.00;;;;;;4956544;28;20408;-50
2023/09/11 07:03:06;;;;;;;1.20;0.60;;;23.80;45.00;;;;;;4956750;29;20400;-50
2023/09/11 07:05:32;;;;;;;1.50;1.10;;;23.90;45.20;;;;;;4956270;28;20794;-53
2023/09/11 07:07:58;;;;;;;1.00;0.37;;;24.00;45.00;;;;;;4956791;28;20783;-50
2023/09/11 07:10:24;;;;;;;1.93;1.17;;;24.10;45.00;;;;;;4956460;28;20945;-49
2023/09/11 07:12:50;;;;;;;1.20;0.77;;;24.30;45.10;;;;;;4956512;28;20173;-53
2023/09/11 07:15:19;;;;;;;1.50;0.97;;;24.40;45.00;;;;;;4956468;28;20451;-52
2023/09/11 07:17:45;;;;;;;1.27;0.87;;;24.50;44.60;;;;;;4956345;29;20452;-52
2023/09/11 07:20:14;;;;;;;2.00;1.30;;;24.50;44.60;;;;;;4956552;28;20766;-52
2023/09/11 07:22:40;;;;;;;1.93;0.60;;;24.70;44.20;;;;;;4956200;28;20397;-50
2023/09/11 07:25:11;;;;;;;1.93;0.80;;;24.80;43.70;;;;;;4956070;28;20400;-52
2023/09/11 07:27:37;;;;;;;1.13;0.60;;;24.90;43.90;;;;;;4956292;28;20721;-50
2023/09/11 07:30:04;;;;;;;1.50;0.90;;;24.90;44.10;;;;;;4956261;28;20420;-50
2023/09/11 07:32:30;;;;;;;2.13;0.87;;;25.00;43.80;;;;;;4955920;28;20412;-52
2023/09/11 07:34:56;;;;;;;2.10;1.20;;;25.10;43.50;;;;;;4956222;28;20474;-52
2023/09/11 07:37:22;;;;;;;2.50;1.23;;;25.20;43.50;;;;;;4956192;28;20515;-50
2023/09/11 07:39:48;;;;;;;1.40;0.97;;;25.30;43.60;;;;;;4956107;28;20994;-52
2023/09/11 07:42:14;;;;;;;1.40;0.83;;;25.40;43.40;;;;;;4955753;28;20404;-52
2023/09/11 07:44:40;;;;;;;1.37;0.90;;;25.60;43.50;;;;;;4956104;28;20293;-49
2023/09/11 07:47:06;;;;;;;1.37;1.07;;;25.70;42.80;;;;;;4955784;29;20950;-49
2023/09/11 07:49:32;;;;;;;3.40;1.80;;;25.80;42.90;;;;;;4955966;28;20408;-52
2023/09/11 07:51:57;;;;;;;1.40;0.97;;;25.90;42.50;;;;;;4955643;28;20176;-50
2023/09/11 07:54:23;;;;;;;2.37;1.23;;;26.10;42.80;;;;;;4955797;29;20559;-49
2023/09/11 07:56:52;;;;;;;3.00;1.73;;;26.20;42.80;;;;;;4955576;29;20223;-52
2023/09/11 07:59:18;;;;;;;1.50;0.80;;;26.30;42.60;;;;;;4955181;28;20187;-50
2023/09/11 08:01:43;;;;;;;1.40;0.87;;;26.40;42.80;;;;;;4954891;28;20412;-51
2023/09/11 08:04:09;;;;;;;1.40;0.83;;;26.60;42.60;;;;;;4954319;29;20412;-52
2023/09/11 08:06:35;;;;;;;1.40;0.63;;;26.70;42.60;;;;;;4955575;28;20655;-51
2023/09/11 08:09:03;;;;;;;3.40;1.50;;;26.80;40.90;;;;;;4955546;29;20180;-50
2023/09/11 08:11:31;;;;;;;2.27;1.43;;;26.80;40.60;;;;;;4955218;28;20969;-52
2023/09/11 08:13:57;;;;;;;1.50;0.90;;;26.80;40.70;;;;;;4955498;28;20902;-49
2023/09/11 08:16:23;;;;;;;1.20;0.80;;;26.80;41.20;;;;;;4955185;28;20993;-49
2023/09/11 08:18:49;;;;;;;1.97;0.90;;;26.90;40.90;;;;;;4955329;28;20408;-51
2023/09/11 08:21:14;;;;;;;1.83;1.33;;;27.00;41.30;;;;;;4955098;28;20173;-52
2023/09/11 08:23:44;;;;;;;1.10;0.40;;;27.10;40.00;;;;;;4955248;28;20400;-50
2023/09/11 08:26:10;;;;;;;1.20;0.60;;;27.20;40.80;;;;;;4955038;28;20211;-52
2023/09/11 08:28:37;;;;;;;1.77;1.17;;;27.20;40.50;;;;;;4955141;28;20411;-52
2023/09/11 08:31:03;;;;;;;1.10;0.60;;;27.30;40.90;;;;;;4955126;28;20420;-50
2023/09/11 08:33:30;;;;;;;1.10;0.60;;;27.40;40.50;;;;;;4955065;28;20400;-50
2023/09/11 08:35:55;;;;;;;1.30;0.83;;;27.50;40.10;;;;;;4954968;28;20429;-51
2023/09/11 08:38:21;;;;;;;1.93;1.50;;;27.60;39.60;;;;;;4954934;28;20463;-51
2023/09/11 08:40:47;;;;;;;1.30;0.80;;;27.70;39.60;;;;;;4954748;28;20783;-52
2023/09/11 08:43:13;;;;;;;1.53;0.97;;;27.90;39.80;;;;;;4954842;28;20248;-50
2023/09/11 08:45:40;;;;;;;4.10;1.47;;;28.00;40.00;;;;;;4954772;28;20192;-50
2023/09/11 08:48:16;;;;;;;1.10;0.47;;;28.10;39.50;;;;;;4955012;28;20408;-52
2023/09/11 08:50:56;;;;;;;2.63;1.40;;;28.30;39.80;;;;;;4954557;28;20415;-49
2023/09/11 08:53:23;;;;;;;1.43;0.90;;;28.40;39.30;;;;;;4954805;28;20412;-51
2023/09/11 08:55:50;;;;;;;1.80;1.40;;;28.50;38.40;;;;;;4954400;28;20956;-52
2023/09/11 08:58:21;;;;;;;3.30;1.90;;;28.50;38.80;;;;;;4954625;28;20459;-49
2023/09/11 09:00:47;;;;;;;2.43;1.47;;;28.60;38.10;;;;;;4954449;28;20428;-50
2023/09/11 09:03:13;;;;;;;1.47;1.10;;;28.80;38.30;;;;;;4954641;28;20483;-50
2023/09/11 09:05:40;;;;;;;1.60;0.90;;;28.90;38.50;;;;;;4954455;28;20424;-50
2023/09/11 09:08:07;;;;;;;1.40;1.23;;;28.90;38.10;;;;;;4954446;28;20457;-52
2023/09/11 09:10:33;;;;;;;2.40;1.07;;;29.00;37.90;;;;;;4954046;28;20471;-52
2023/09/11 09:13:00;;;;;;;1.70;1.03;;;29.10;38.40;;;;;;4954425;29;20416;-50
2023/09/11 09:15:28;;;;;;;1.80;1.27;;;29.80;38.40;;;;;;4954244;28;20499;-51
2023/09/11 09:17:54;;;;;;;1.60;1.27;;;29.30;38.00;;;;;;4954260;28;20460;-52
2023/09/11 09:20:20;;;;;;;1.50;1.30;;;29.40;38.30;;;;;;4954182;28;20409;-49
2023/09/11 09:22:55;;;;;;;1.10;0.40;;;29.60;38.10;;;;;;4954144;28;20419;-48
2023/09/11 09:25:22;;;;;;;1.43;0.93;;;29.80;37.80;;;;;;4953953;28;20244;-50
2023/09/11 09:27:48;;;;;;;1.30;0.90;;;29.90;37.60;;;;;;4954181;28;20474;-49
2023/09/11 09:30:25;;;;;;;2.80;1.03;;;30.00;37.70;;;;;;4954162;29;20412;-53
2023/09/11 09:32:52;;;;;;;1.17;0.50;;;30.20;37.80;;;;;;4954166;28;20914;-51
2023/09/11 09:35:22;;;;;;;3.30;1.40;;;30.30;37.60;;;;;;4953884;28;20432;-51
2023/09/11 09:37:53;;;;;;;1.37;1.07;;;30.40;37.00;;;;;;4954258;28;20460;-53
2023/09/11 09:40:35;;;;;;;1.50;0.80;;;30.50;36.60;;;;;;4954030;28;20962;-50
2023/09/11 09:43:04;;;;;;;1.47;1.03;;;30.60;37.20;;;;;;4954077;28;20432;-49
2023/09/11 09:45:30;;;;;;;1.00;0.33;;;29.90;34.00;;;;;;4953886;28;20439;-50
2023/09/11 09:48:07;;;;;;;2.03;1.53;;;30.70;34.80;;;;;;4953969;28;20408;-53
2023/09/11 09:50:58;;;;;;;2.30;1.27;;;30.80;35.10;;;;;;4953677;28;20414;-52
2023/09/11 09:53:42;;;;;;;2.03;1.60;;;30.90;35.20;;;;;;4953911;28;20408;-52
2023/09/11 09:56:10;;;;;;;1.73;1.10;;;31.00;36.00;;;;;;4953860;28;20952;-52
2023/09/11 09:58:41;;;;;;;1.57;0.77;;;31.00;34.70;;;;;;4953781;28;20455;-50
2023/09/11 10:01:09;;;;;;;1.20;0.60;;;31.10;33.70;;;;;;4953671;28;20404;-50
2023/09/11 10:03:45;;;;;;;1.50;0.87;;;31.20;34.90;;;;;;4953891;28;20405;-52
2023/09/11 10:06:27;;;;;;;1.80;1.03;;;31.30;35.00;;;;;;4953810;28;20455;-50
2023/09/11 10:09:13;;;;;;;2.40;1.30;;;31.30;35.10;;;;;;4953705;28;20416;-52
2023/09/11 10:11:41;;;;;;;1.30;0.83;;;31.50;35.20;;;;;;4953559;28;20407;-50
2023/09/11 10:14:08;;;;;;;1.60;0.80;;;31.60;35.00;;;;;;4953676;28;20447;-50
2023/09/11 10:16:34;;;;;;;1.30;0.90;;;31.60;34.40;;;;;;4953579;28;21039;-53
2023/09/11 10:19:01;;;;;;;2.07;1.07;;;31.70;33.70;;;;;;4953582;28;20488;-49
2023/09/11 10:21:30;;;;;;;1.90;1.10;;;31.80;32.20;;;;;;4953427;28;20973;-52
2023/09/11 10:23:56;;;;;;;1.60;1.00;;;31.80;33.40;;;;;;4955710;28;20404;-52
2023/09/11 10:26:48;;;;;;;1.40;1.10;;;31.90;32.30;;;;;;4957356;28;20956;-50
2023/09/11 10:29:40;;;;;;;1.50;0.83;;;32.00;32.80;;;;;;4954955;29;20429;-51
2023/09/11 10:32:15;;;;;;;2.53;1.53;;;32.00;33.10;;;;;;4957157;28;20404;-50
2023/09/11 10:34:41;;;;;;;1.30;0.67;;;32.10;33.70;;;;;;4957235;28;20411;-50
2023/09/11 10:37:07;;;;;;;1.50;0.80;;;32.20;31.90;;;;;;4957171;28;20511;-49
2023/09/11 10:39:36;;;;;;;3.07;1.07;;;32.30;33.00;;;;;;4957173;29;20165;-49
2023/09/11 10:42:03;;;;;;;1.60;0.97;;;32.50;33.10;;;;;;4956821;28;20177;-52
2023/09/11 10:44:29;;;;;;;2.40;2.00;;;32.60;32.80;;;;;;4957154;28;20750;-50
2023/09/11 10:47:00;;;;;;;1.30;1.00;;;32.70;32.00;;;;;;4956955;28;20463;-52
2023/09/11 10:49:27;;;;;;;1.30;0.80;;;32.70;30.30;;;;;;4957088;28;20464;-52
2023/09/11 10:51:53;;;;;;;1.37;0.83;;;32.80;31.40;;;;;;4956735;28;20423;-52
2023/09/11 10:54:22;;;;;;;1.20;0.60;;;32.90;31.60;;;;;;4956941;28;20404;-51
2023/09/11 10:56:51;;;;;;;2.17;1.60;;;32.90;31.40;;;;;;4956566;28;20463;-50
2023/09/11 10:59:17;;;;;;;1.40;0.90;;;33.00;31.70;;;;;;4956821;28;20408;-53
2023/09/11 11:01:47;;;;;;;1.17;0.63;;;33.10;31.90;;;;;;4956608;28;20419;-51
2023/09/11 11:04:15;;;;;;;2.63;1.43;;;33.20;31.30;;;;;;4956710;28;20412;-51
2023/09/11 11:06:49;;;;;;;1.03;0.40;;;33.30;30.00;;;;;;4956670;28;20490;-53
2023/09/11 11:09:32;;;;;;;5.10;1.90;;;33.30;30.60;;;;;;4956548;28;20416;-50
2023/09/11 11:12:01;;;;;;;2.70;0.80;;;33.30;31.00;;;;;;4956384;28;20830;-50
2023/09/11 11:14:27;;;;;;;4.70;1.13;;;33.30;30.70;;;;;;4956510;28;20858;-51
2023/09/11 11:17:06;;;;;;;7.00;1.63;;;33.30;30.70;;;;;;4956321;28;20463;-50
2023/09/11 11:19:34;;;;;;;6.37;1.70;;;33.30;29.70;;;;;;4956466;28;20427;-52
2023/09/11 11:22:07;;;;;;;5.33;1.37;;;33.20;30.00;;;;;;4956178;28;20412;-50
2023/09/11 11:24:34;;;;;;;4.70;1.20;;;33.30;30.30;;;;;;4956524;28;20424;-52
2023/09/11 11:27:03;;;;;;;4.57;1.07;;;33.30;29.90;;;;;;4956135;28;20456;-53
2023/09/11 11:29:30;;;;;;;4.70;1.20;;;33.40;28.30;;;;;;4956169;28;20883;-50
2023/09/11 11:31:58;;;;;;;4.37;1.23;;;33.40;28.50;;;;;;4955975;28;20852;-49
2023/09/11 11:34:28;;;;;;;4.53;1.27;;;33.60;28.40;;;;;;4956057;28;20412;-53
2023/09/11 11:36:57;;;;;;;6.17;2.00;;;33.70;29.70;;;;;;4955962;28;20483;-49
2023/09/11 11:39:27;;;;;;;6.57;1.90;;;33.80;29.10;;;;;;4956164;28;20413;-50
2023/09/11 11:41:54;;;;;;;4.70;1.23;;;33.90;27.30;;;;;;4955844;28;20894;-52
2023/09/11 11:44:22;;;;;;;3.30;0.93;;;34.00;29.20;;;;;;4955960;28;20436;-50
2023/09/11 11:46:50;;;;;;;3.87;1.27;;;34.10;29.60;;;;;;4955770;28;20442;-53
2023/09/11 11:49:20;;;;;;;4.37;1.30;;;34.10;29.20;;;;;;4955930;28;20471;-50
2023/09/11 11:51:46;;;;;;;4.60;1.43;;;34.20;29.50;;;;;;4955691;28;20867;-50
2023/09/11 11:54:23;;;;;;;4.90;1.37;;;34.20;28.60;;;;;;4955853;28;20409;-52
2023/09/11 11:57:00;;;;;;;4.80;1.37;;;34.20;28.90;;;;;;4955635;28;20448;-50
2023/09/11 11:59:37;;;;;;;3.63;1.03;;;34.20;28.80;;;;;;4955883;28;20416;-52
2023/09/11 12:02:04;;;;;;;4.50;1.30;;;34.20;29.10;;;;;;4955677;28;20491;-50
2023/09/11 12:04:29;;;;;;;4.40;1.47;;;34.30;29.10;;;;;;4955668;28;20408;-52
2023/09/11 12:07:00;;;;;;;4.43;1.37;;;34.30;28.50;;;;;;4955465;28;20436;-50
2023/09/11 12:09:26;;;;;;;4.50;1.50;;;34.40;29.20;;;;;;4955535;28;20200;-53
2023/09/11 12:11:52;;;;;;;3.37;1.07;;;34.40;28.90;;;;;;4955248;28;20447;-50
2023/09/11 12:14:19;;;;;;;4.87;1.30;;;34.50;29.60;;;;;;4955454;28;20256;-52
2023/09/11 12:16:45;;;;;;;9.60;1.50;;;34.50;29.50;;;;;;4955328;28;20466;-52
2023/09/11 12:19:12;;;;;;;4.13;1.47;;;34.50;29.00;;;;;;4955406;28;20420;-50
2023/09/11 12:21:37;;;;;;;4.33;1.37;;;34.60;29.20;;;;;;4955043;28;20404;-52
2023/09/11 12:24:08;;;;;;;5.37;1.57;;;34.50;29.60;;;;;;4955225;28;20413;-53
2023/09/11 12:26:36;;;;;;;4.77;1.27;;;34.60;29.60;;;;;;4955246;28;20252;-49
2023/09/11 12:29:03;;;;;;;4.13;1.10;;;34.60;29.40;;;;;;4955217;28;20563;-53
2023/09/11 12:31:29;;;;;;;3.17;0.90;;;34.70;29.50;;;;;;4954824;28;20413;-52
2023/09/11 12:33:59;;;;;;;5.00;1.17;;;34.80;28.80;;;;;;4955068;28;20413;-50
2023/09/11 12:36:25;;;;;;;4.07;0.97;;;34.90;29.10;;;;;;4954897;28;20420;-52
2023/09/11 12:38:51;;;;;;;8.30;2.20;;;34.90;28.20;;;;;;4954844;28;20412;-52
2023/09/11 12:41:18;;;;;;;5.57;1.50;;;35.00;28.40;;;;;;4954752;29;20418;-51
2023/09/11 12:43:44;;;;;;;5.10;1.10;;;35.00;28.10;;;;;;4955136;28;20413;-52
2023/09/11 12:46:13;;;;;;;9.80;2.00;;;35.00;26.60;;;;;;4954288;28;20791;-52
2023/09/11 12:48:45;;;;;;;5.40;1.47;;;35.10;27.30;;;;;;4954744;28;20468;-52
2023/09/11 12:51:11;;;;;;;6.33;1.50;;;35.10;28.20;;;;;;4954477;28;20474;-53